createdAt,value
2017-11-08T00:01:15.054Z,28.52
2017-11-08T00:03:42.058Z,22.33
2017-11-08T00:06:08.326Z,24.65
2017-11-08T00:08:34.627Z,29.15
2017-11-08T00:11:00.889Z,20.25
2017-11-08T00:13:27.189Z,24.90
2017-11-08T00:15:53.475Z,24.63
2017-11-08T00:18:19.814Z,25.20
2017-11-08T00:20:46.106Z,23.33
2017-11-08T00:23:12.386Z,25.20
2017-11-08T00:25:38.698Z,22.27
2017-11-08T00:28:05.705Z,28.30
2017-11-08T00:30:32.003Z,22.50
2017-11-08T00:32:58.302Z,25.80
2017-11-08T00:35:24.571Z,25.00
2017-11-08T00:37:50.866Z,24.90
2017-11-08T00:40:17.146Z,26.65
2017-11-08T00:42:44.171Z,24.67
2017-11-08T00:45:11.228Z,25.37
2017-11-08T00:47:37.527Z,22.17
2017-11-08T00:50:03.818Z,25.15
2017-11-08T00:52:30.871Z,23.12
2017-11-08T00:54:57.150Z,31.87
2017-11-08T00:57:30.383Z,25.70
2017-11-08T00:59:59.559Z,26.02
2017-11-08T01:02:26.607Z,27.42
2017-11-08T01:04:52.879Z,28.08
2017-11-08T01:07:19.174Z,30.48
2017-11-08T01:09:45.454Z,24.50
2017-11-08T01:12:12.467Z,30.15
2017-11-08T01:14:38.774Z,26.15
2017-11-08T01:17:05.050Z,23.83
2017-11-08T01:19:31.314Z,25.62
2017-11-08T01:21:58.374Z,25.05
2017-11-08T01:24:25.389Z,23.92
2017-11-08T01:26:51.642Z,28.70
2017-11-08T01:29:17.951Z,24.65
2017-11-08T01:31:44.235Z,24.42
2017-11-08T01:34:10.511Z,26.40
2017-11-08T01:36:36.823Z,24.87
2017-11-08T01:39:04.946Z,23.10
2017-11-08T01:41:32.021Z,23.50
2017-11-08T01:43:59.398Z,26.45
2017-11-08T01:46:25.687Z,32.80
2017-11-08T01:48:51.994Z,25.12
2017-11-08T01:51:18.332Z,33.75
2017-11-08T01:53:44.626Z,30.62
2017-11-08T01:56:11.698Z,24.70
2017-11-08T01:58:38.030Z,25.45
2017-11-08T02:01:05.050Z,25.40
2017-11-08T02:03:31.354Z,28.75
2017-11-08T02:05:57.662Z,32.10
2017-11-08T02:08:23.965Z,24.48
2017-11-08T02:10:50.255Z,27.95
2017-11-08T02:13:16.570Z,25.70
2017-11-08T02:15:45.963Z,27.67
2017-11-08T02:18:18.358Z,28.87
2017-11-08T02:20:44.711Z,30.75
2017-11-08T02:23:11.007Z,30.70
2017-11-08T02:25:37.291Z,26.27
2017-11-08T02:28:03.639Z,26.42
2017-11-08T02:30:29.950Z,31.42
2017-11-08T02:32:56.278Z,29.30
2017-11-08T02:35:22.602Z,25.10
2017-11-08T02:37:48.898Z,34.40
2017-11-08T02:40:15.219Z,23.98
2017-11-08T02:42:41.511Z,28.55
2017-11-08T02:45:07.854Z,25.58
2017-11-08T02:47:34.134Z,30.20
2017-11-08T02:50:00.436Z,26.10
2017-11-08T02:52:26.727Z,24.27
2017-11-08T02:54:59.027Z,25.67
2017-11-08T02:57:25.338Z,26.12
2017-11-08T02:59:51.602Z,28.73
2017-11-08T03:02:23.929Z,22.62
2017-11-08T03:04:50.272Z,26.12
2017-11-08T03:07:16.555Z,22.60
2017-11-08T03:09:42.830Z,27.15
2017-11-08T03:12:09.132Z,23.35
2017-11-08T03:14:35.419Z,30.42
2017-11-08T03:17:01.689Z,34.83
2017-11-08T03:19:28.043Z,29.37
2017-11-08T03:21:55.055Z,27.58
2017-11-08T03:24:21.343Z,29.12
2017-11-08T03:26:47.666Z,25.12
2017-11-08T03:29:15.402Z,31.85
2017-11-08T03:31:41.669Z,28.60
2017-11-08T03:34:09.819Z,26.67
2017-11-08T03:36:36.154Z,26.23
2017-11-08T03:39:02.538Z,28.12
2017-11-08T03:41:28.833Z,28.48
2017-11-08T03:43:55.132Z,31.98
2017-11-08T03:46:22.909Z,28.23
2017-11-08T03:48:49.927Z,23.95
2017-11-08T03:51:16.266Z,30.60
2017-11-08T03:53:42.537Z,26.98
2017-11-08T03:56:08.847Z,29.83
2017-11-08T03:58:35.122Z,23.08
2017-11-08T04:01:01.419Z,28.17
2017-11-08T04:03:27.736Z,31.67
2017-11-08T04:05:54.742Z,26.40
2017-11-08T04:08:21.074Z,29.35
2017-11-08T04:10:47.386Z,29.12
2017-11-08T04:13:13.710Z,34.05
2017-11-08T04:15:40.019Z,28.20
2017-11-08T04:18:06.315Z,30.85
2017-11-08T04:20:32.599Z,35.78
2017-11-08T04:22:58.886Z,31.42
2017-11-08T04:25:25.217Z,33.67
2017-11-08T04:27:52.262Z,30.77
2017-11-08T04:30:18.531Z,27.35
2017-11-08T04:32:45.934Z,30.55
2017-11-08T04:35:12.202Z,31.10
2017-11-08T04:37:38.479Z,36.55
2017-11-08T04:40:04.824Z,27.23
2017-11-08T04:42:31.852Z,33.13
2017-11-08T04:44:58.139Z,31.62
2017-11-08T04:47:24.448Z,30.00
2017-11-08T04:49:50.715Z,26.92
2017-11-08T04:52:17.751Z,32.85
2017-11-08T04:54:44.808Z,29.87
2017-11-08T04:57:11.122Z,28.95
2017-11-08T04:59:37.426Z,32.13
2017-11-08T05:02:03.746Z,33.35
2017-11-08T05:04:30.015Z,29.73
2017-11-08T05:06:56.274Z,30.95
2017-11-08T05:09:22.586Z,34.20
2017-11-08T05:11:48.846Z,31.90
2017-11-08T05:14:15.134Z,36.30
2017-11-08T05:16:42.149Z,35.70
2017-11-08T05:19:08.418Z,38.63
2017-11-08T05:21:34.713Z,39.55
2017-11-08T05:24:01.016Z,39.92
2017-11-08T05:26:27.282Z,38.28
2017-11-08T05:28:54.327Z,35.88
2017-11-08T05:31:21.378Z,36.30
2017-11-08T05:33:47.631Z,34.80
2017-11-08T05:36:13.942Z,36.80
2017-11-08T05:38:40.212Z,39.47
2017-11-08T05:41:06.477Z,46.85
2017-11-08T05:43:34.006Z,40.40
2017-11-08T05:46:01.033Z,40.15
2017-11-08T05:48:27.322Z,42.15
2017-11-08T05:50:53.602Z,36.15
2017-11-08T05:53:19.931Z,37.28
2017-11-08T05:55:46.223Z,34.65
2017-11-08T05:58:12.506Z,33.25
2017-11-08T06:00:38.802Z,37.45
2017-11-08T06:03:05.071Z,44.67
2017-11-08T06:05:31.327Z,39.75
2017-11-08T06:07:57.654Z,37.80
2017-11-08T06:10:24.675Z,39.72
2017-11-08T06:12:50.967Z,40.63
2017-11-08T06:15:17.276Z,34.45
2017-11-08T06:17:43.539Z,43.08
2017-11-08T06:20:09.827Z,38.97
2017-11-08T06:22:36.119Z,37.03
2017-11-08T06:25:02.438Z,38.72
2017-11-08T06:27:28.682Z,41.28
2017-11-08T06:29:54.963Z,38.00
2017-11-08T06:32:21.983Z,38.85
2017-11-08T06:34:49.142Z,38.80
2017-11-08T06:37:15.421Z,38.72
2017-11-08T06:39:41.711Z,38.78
2017-11-08T06:42:08.999Z,36.05
2017-11-08T06:44:36.011Z,33.65
2017-11-08T06:47:02.283Z,34.75
2017-11-08T06:49:29.575Z,34.50
2017-11-08T06:51:56.615Z,36.67
2017-11-08T06:54:22.903Z,45.53
2017-11-08T06:56:49.207Z,43.53
2017-11-08T06:59:16.275Z,38.17
2017-11-08T07:01:42.536Z,35.05
2017-11-08T07:04:09.556Z,32.40
2017-11-08T07:06:35.874Z,34.90
2017-11-08T07:09:02.200Z,40.72
2017-11-08T07:11:31.411Z,34.67
2017-11-08T07:13:57.738Z,40.10
2017-11-08T07:16:24.730Z,42.10
2017-11-08T07:18:51.018Z,40.38
2017-11-08T07:21:17.342Z,35.50
2017-11-08T07:23:43.611Z,35.92
2017-11-08T07:26:10.642Z,32.70
2017-11-08T07:28:36.919Z,37.78
2017-11-08T07:31:03.214Z,37.22
2017-11-08T07:33:29.498Z,39.08
2017-11-08T07:35:55.783Z,32.38
2017-11-08T07:38:22.030Z,43.50
2017-11-08T07:40:48.319Z,33.17
2017-11-08T07:43:14.645Z,31.95
2017-11-08T07:45:41.674Z,37.13
2017-11-08T07:48:08.183Z,37.75
2017-11-08T07:50:34.514Z,37.75
2017-11-08T07:53:00.803Z,39.38
2017-11-08T07:55:33.278Z,40.53
2017-11-08T07:57:59.606Z,40.08
2017-11-08T08:00:25.939Z,34.90
2017-11-08T08:02:52.206Z,33.95
2017-11-08T08:05:18.502Z,35.92
2017-11-08T08:07:45.515Z,40.33
2017-11-08T08:10:11.815Z,30.58
2017-11-08T08:12:38.126Z,30.83
2017-11-08T08:15:04.399Z,32.28
2017-11-08T08:17:30.665Z,37.65
2017-11-08T08:19:57.362Z,29.92
2017-11-08T08:22:24.655Z,35.25
2017-11-08T08:24:50.937Z,31.98
2017-11-08T08:27:17.247Z,32.08
2017-11-08T08:29:43.560Z,34.75
2017-11-08T08:32:10.552Z,32.88
2017-11-08T08:34:36.861Z,29.87
2017-11-08T08:37:03.914Z,37.08
2017-11-08T08:39:30.222Z,30.05
2017-11-08T08:41:56.509Z,35.38
2017-11-08T08:44:22.795Z,41.75
2017-11-08T08:46:49.072Z,35.38
2017-11-08T08:49:15.331Z,36.35
2017-11-08T08:51:41.648Z,29.33
2017-11-08T08:54:07.910Z,33.30
2017-11-08T08:56:34.944Z,31.92
2017-11-08T08:59:01.970Z,36.30
2017-11-08T09:01:28.252Z,36.67
2017-11-08T09:03:54.533Z,35.85
2017-11-08T09:06:20.848Z,29.90
2017-11-08T09:08:48.147Z,44.60
2017-11-08T09:11:14.443Z,31.90
2017-11-08T09:13:41.482Z,39.10
2017-11-08T09:16:07.799Z,29.70
2017-11-08T09:18:34.119Z,33.55
2017-11-08T09:21:00.414Z,36.63
2017-11-08T09:23:30.590Z,40.83
2017-11-08T09:25:56.955Z,35.85
2017-11-08T09:28:23.275Z,35.35
2017-11-08T09:30:49.626Z,32.00
2017-11-08T09:33:16.028Z,32.58
2017-11-08T09:35:42.458Z,39.03
2017-11-08T09:38:08.774Z,31.85
2017-11-08T09:40:46.363Z,34.05
2017-11-08T09:46:01.562Z,32.22
2017-11-08T09:48:27.914Z,38.25
2017-11-08T09:50:54.179Z,36.45
2017-11-08T09:53:20.455Z,40.50
2017-11-08T09:55:51.543Z,39.92
2017-11-08T09:58:17.870Z,33.83
2017-11-08T10:00:50.071Z,43.65
2017-11-08T10:03:19.338Z,44.13
2017-11-08T10:05:45.628Z,34.58
2017-11-08T10:08:12.636Z,44.88
2017-11-08T10:10:39.000Z,45.47
2017-11-08T10:13:10.449Z,34.50
2017-11-08T10:15:39.570Z,34.30
2017-11-08T10:18:05.894Z,33.42
2017-11-08T10:20:32.166Z,44.90
2017-11-08T10:23:00.154Z,43.08
2017-11-08T10:25:26.517Z,41.45
2017-11-08T10:27:54.782Z,38.53
2017-11-08T10:30:21.589Z,34.15
2017-11-08T10:32:47.950Z,35.92
2017-11-08T10:35:14.252Z,34.72
2017-11-08T10:37:40.539Z,38.97
2017-11-08T10:40:08.063Z,39.17
2017-11-08T10:42:34.365Z,38.63
2017-11-08T10:45:00.663Z,36.97
2017-11-08T10:47:26.984Z,34.67
2017-11-08T10:49:54.188Z,39.58
2017-11-08T10:52:20.507Z,40.50
2017-11-08T10:54:47.567Z,37.25
2017-11-08T10:57:13.910Z,38.25
2017-11-08T10:59:46.293Z,37.63
2017-11-08T11:02:13.375Z,34.08
2017-11-08T11:04:41.524Z,31.42
2017-11-08T11:07:07.865Z,35.15
2017-11-08T11:09:34.960Z,39.35
2017-11-08T11:12:02.071Z,37.75
2017-11-08T11:14:28.380Z,36.15
2017-11-08T11:16:54.711Z,37.80
2017-11-08T11:19:21.739Z,40.78
2017-11-08T11:21:48.071Z,42.13
2017-11-08T11:24:14.391Z,34.85
2017-11-08T11:26:40.727Z,39.75
2017-11-08T11:29:07.040Z,39.60
2017-11-08T11:31:33.372Z,44.63
2017-11-08T11:33:59.688Z,38.08
2017-11-08T11:36:25.992Z,39.38
2017-11-08T11:38:54.137Z,45.70
2017-11-08T11:41:22.092Z,39.13
2017-11-08T11:43:48.410Z,40.97
2017-11-08T11:46:14.738Z,37.10
2017-11-08T11:48:42.012Z,39.30
2017-11-08T11:51:08.310Z,34.95
2017-11-08T11:53:35.422Z,172.18
2017-11-08T11:56:02.787Z,54.47
2017-11-08T11:58:29.148Z,34.35
2017-11-08T12:00:55.472Z,33.72
2017-11-08T12:03:21.787Z,38.10
2017-11-08T12:05:48.925Z,38.90
2017-11-08T12:08:16.027Z,43.17
2017-11-08T12:10:42.357Z,40.17
2017-11-08T12:13:08.678Z,36.97
2017-11-08T12:15:35.043Z,36.92
2017-11-08T12:18:01.368Z,36.22
2017-11-08T12:20:27.675Z,40.87
2017-11-08T12:22:53.995Z,40.83
2017-11-08T12:25:20.328Z,30.80
2017-11-08T12:27:46.644Z,40.60
2017-11-08T12:30:13.008Z,36.63
2017-11-08T12:32:39.336Z,35.55
2017-11-08T12:35:06.423Z,39.00
2017-11-08T12:37:33.766Z,36.72
2017-11-08T12:40:01.941Z,28.55
2017-11-08T12:42:28.332Z,27.90
2017-11-08T12:44:56.587Z,27.60
2017-11-08T12:47:22.905Z,38.05
2017-11-08T12:49:49.980Z,31.92
2017-11-08T12:52:16.316Z,32.22
2017-11-08T12:54:42.624Z,32.63
2017-11-08T12:57:08.935Z,34.13
2017-11-08T12:59:35.247Z,33.72
2017-11-08T13:02:02.339Z,34.20
2017-11-08T13:04:28.645Z,38.72
2017-11-08T13:06:54.988Z,34.83
2017-11-08T13:09:22.040Z,25.90
2017-11-08T13:11:49.816Z,32.08
2017-11-08T13:14:16.891Z,32.93
2017-11-08T13:16:43.947Z,33.60
2017-11-08T13:19:11.016Z,30.90
2017-11-08T13:21:37.365Z,29.20
2017-11-08T13:24:03.705Z,32.83
2017-11-08T13:26:30.104Z,39.38
2017-11-08T13:28:56.582Z,34.10
2017-11-08T13:31:23.032Z,38.33
2017-11-08T13:33:49.477Z,30.70
2017-11-08T13:36:15.980Z,29.50
2017-11-08T13:38:42.368Z,32.47
2017-11-08T13:41:08.794Z,35.60
2017-11-08T13:43:35.242Z,32.72
2017-11-08T13:46:01.673Z,37.50
2017-11-08T13:48:28.880Z,40.20
2017-11-08T13:50:55.280Z,33.97
2017-11-08T13:53:21.712Z,41.17
2017-11-08T13:55:48.877Z,31.75
2017-11-08T13:58:17.077Z,32.50
2017-11-08T14:00:44.216Z,34.08
2017-11-08T14:03:11.436Z,31.27
2017-11-08T14:05:37.904Z,31.50
2017-11-08T14:08:04.349Z,33.95
2017-11-08T14:10:30.853Z,31.92
2017-11-08T14:12:57.981Z,31.95
2017-11-08T14:15:24.391Z,34.83
2017-11-08T14:17:50.820Z,32.13
2017-11-08T14:20:17.247Z,25.95
2017-11-08T14:22:44.425Z,32.20
2017-11-08T14:25:11.900Z,31.23
2017-11-08T14:27:38.280Z,40.00
2017-11-08T14:30:04.678Z,31.58
2017-11-08T14:32:31.109Z,38.40
2017-11-08T14:34:58.246Z,35.97
2017-11-08T14:37:25.413Z,36.97
2017-11-08T14:39:52.620Z,34.85
2017-11-08T14:42:20.852Z,35.20
2017-11-08T14:44:47.261Z,36.50
2017-11-08T14:47:13.697Z,34.38
2017-11-08T14:49:40.096Z,29.92
2017-11-08T14:52:07.240Z,39.05
2017-11-08T14:54:34.414Z,35.17
2017-11-08T14:57:01.624Z,36.00
2017-11-08T14:59:28.018Z,37.17
2017-11-08T15:01:55.212Z,31.33
2017-11-08T15:04:22.345Z,38.42
2017-11-08T15:06:48.749Z,40.00
2017-11-08T15:09:15.176Z,35.67
2017-11-08T15:11:44.504Z,40.40
2017-11-08T15:14:30.853Z,36.38
2017-11-08T15:16:58.040Z,36.67
2017-11-08T15:19:28.186Z,37.15
2017-11-08T15:21:55.723Z,36.20
2017-11-08T15:24:22.893Z,42.07
2017-11-08T15:26:50.116Z,45.45
2017-11-08T15:29:16.532Z,38.38
2017-11-08T15:31:42.889Z,45.65
2017-11-08T15:34:09.296Z,38.85
2017-11-08T15:36:35.705Z,40.40
2017-11-08T15:39:02.232Z,37.70
2017-11-08T15:41:28.676Z,44.08
2017-11-08T15:43:55.108Z,41.08
2017-11-08T15:46:21.533Z,42.78
2017-11-08T15:48:48.673Z,37.83
2017-11-08T15:51:15.125Z,41.88
2017-11-08T15:53:41.697Z,39.00
2017-11-08T15:56:08.076Z,44.53
2017-11-08T15:58:35.294Z,43.10
2017-11-08T16:01:01.708Z,43.53
2017-11-08T16:03:28.194Z,48.25
2017-11-08T16:05:54.634Z,55.67
2017-11-08T16:08:21.841Z,60.63
2017-11-08T16:10:48.464Z,72.80
2017-11-08T16:13:15.066Z,67.85
2017-11-08T16:15:42.485Z,67.12
2017-11-08T16:18:08.966Z,59.97
2017-11-08T16:20:35.520Z,67.87
2017-11-08T16:23:03.151Z,58.47
2017-11-08T16:25:29.720Z,62.25
2017-11-08T16:27:57.104Z,60.03
2017-11-08T16:30:25.191Z,67.05
2017-11-08T16:32:52.707Z,64.05
2017-11-08T16:35:20.172Z,66.47
2017-11-08T16:37:49.179Z,56.92
2017-11-08T16:40:17.899Z,63.77
2017-11-08T16:42:46.701Z,76.00
2017-11-08T16:45:16.123Z,61.72
2017-11-08T16:47:44.683Z,67.12
2017-11-08T16:50:14.037Z,63.87
2017-11-08T16:52:42.511Z,58.73
2017-11-08T16:55:12.673Z,63.35
2017-11-08T16:57:41.559Z,59.30
2017-11-08T17:00:10.695Z,55.33
2017-11-08T17:02:39.602Z,57.67
2017-11-08T17:05:09.124Z,63.15
2017-11-08T17:07:37.926Z,51.65
2017-11-08T17:10:07.219Z,52.72
2017-11-08T17:12:35.959Z,52.35
2017-11-08T17:15:04.913Z,47.35
2017-11-08T17:17:33.845Z,43.42
2017-11-08T17:20:02.666Z,39.80
2017-11-08T17:22:31.629Z,41.47
2017-11-08T17:25:00.382Z,40.92
2017-11-08T17:27:29.221Z,42.83
2017-11-08T17:29:59.258Z,42.40
2017-11-08T17:32:27.784Z,36.20
2017-11-08T17:34:56.778Z,35.75
2017-11-08T17:37:25.955Z,35.63
2017-11-08T17:39:54.862Z,34.45
2017-11-08T17:42:24.073Z,37.08
2017-11-08T17:44:53.618Z,35.65
2017-11-08T17:47:22.726Z,37.88
2017-11-08T17:49:51.615Z,33.65
2017-11-08T17:52:20.615Z,36.17
2017-11-08T17:54:49.606Z,36.40
2017-11-08T17:57:18.670Z,35.33
2017-11-08T17:59:48.212Z,39.25
2017-11-08T18:02:16.985Z,37.58
2017-11-08T18:04:46.013Z,53.38
2017-11-08T18:07:14.504Z,43.35
2017-11-08T18:09:43.306Z,40.10
2017-11-08T18:12:12.237Z,46.70
2017-11-08T18:14:41.032Z,41.92
2017-11-08T18:17:10.532Z,43.17
2017-11-08T18:19:39.259Z,37.88
2017-11-08T18:22:09.285Z,47.62
2017-11-08T18:24:38.080Z,51.47
2017-11-08T18:27:06.948Z,52.65
2017-11-08T18:29:36.260Z,48.00
2017-11-08T18:32:05.230Z,44.40
2017-11-08T18:34:34.993Z,57.08
2017-11-08T18:37:04.553Z,65.75
2017-11-08T18:39:35.753Z,76.00
2017-11-08T18:42:04.882Z,81.03
2017-11-08T18:44:34.840Z,59.80
2017-11-08T18:47:05.543Z,53.33
2017-11-08T18:49:34.272Z,54.75
2017-11-08T18:52:03.490Z,56.67
2017-11-08T18:54:33.820Z,61.55
2017-11-08T18:57:03.578Z,65.72
2017-11-08T18:59:33.351Z,60.40
2017-11-08T19:02:02.032Z,53.17
2017-11-08T19:04:31.053Z,55.67
2017-11-08T19:06:59.796Z,63.50
2017-11-08T19:09:30.620Z,55.12
2017-11-08T19:11:59.406Z,68.05
2017-11-08T19:14:28.402Z,64.35
2017-11-08T19:16:57.347Z,68.53
2017-11-08T19:19:27.433Z,72.68
2017-11-08T19:21:56.487Z,65.22
2017-11-08T19:24:27.441Z,62.17
2017-11-08T19:26:56.547Z,69.07
2017-11-08T19:29:26.556Z,66.57
2017-11-08T19:31:55.432Z,54.70
2017-11-08T19:34:24.585Z,55.05
2017-11-08T19:36:54.084Z,62.70
2017-11-08T19:39:23.418Z,62.28
2017-11-08T19:41:56.516Z,82.78
2017-11-08T19:44:26.651Z,105.43
2017-11-08T19:46:56.572Z,67.32
2017-11-08T19:49:26.287Z,60.75
2017-11-08T19:51:55.302Z,59.90
2017-11-08T19:54:26.099Z,63.85
2017-11-08T19:56:55.262Z,59.10
2017-11-08T19:59:26.729Z,58.55
2017-11-08T20:01:56.415Z,61.58
2017-11-08T20:04:25.126Z,72.25
2017-11-08T20:06:55.000Z,69.60
2017-11-08T20:09:23.890Z,60.05
2017-11-08T20:11:52.892Z,56.33
2017-11-08T20:14:22.912Z,60.60
2017-11-08T20:16:53.353Z,59.38
2017-11-08T20:19:22.661Z,58.05
2017-11-08T20:21:51.931Z,65.30
2017-11-08T20:24:21.066Z,56.15
2017-11-08T20:26:49.881Z,50.72
2017-11-08T20:29:19.726Z,67.55
2017-11-08T20:31:48.454Z,62.15
2017-11-08T20:34:17.167Z,64.62
2017-11-08T20:36:46.174Z,64.00
2017-11-08T20:39:15.422Z,61.75
2017-11-08T20:41:44.601Z,55.83
2017-11-08T20:44:13.595Z,56.47
2017-11-08T20:46:43.139Z,68.28
2017-11-08T20:49:11.723Z,55.50
2017-11-08T20:51:41.165Z,60.83
2017-11-08T20:54:11.316Z,57.67
2017-11-08T20:56:40.895Z,56.42
2017-11-08T20:59:09.671Z,58.15
2017-11-08T21:01:38.167Z,52.08
2017-11-08T21:04:08.151Z,59.60
2017-11-08T21:06:37.855Z,54.50
2017-11-08T21:09:07.897Z,58.47
2017-11-08T21:11:37.917Z,59.97
2017-11-08T21:14:07.710Z,46.15
2017-11-08T21:16:37.514Z,57.35
2017-11-08T21:19:06.250Z,77.15
2017-11-08T21:21:35.135Z,53.03
2017-11-08T21:24:03.923Z,58.25
2017-11-08T21:26:33.303Z,48.08
2017-11-08T21:29:02.763Z,47.40
2017-11-08T21:31:31.649Z,52.83
2017-11-08T21:34:00.302Z,54.17
2017-11-08T21:36:30.691Z,55.45
2017-11-08T21:39:00.106Z,53.83
2017-11-08T21:41:29.019Z,58.58
2017-11-08T21:43:58.062Z,45.38
2017-11-08T21:46:26.992Z,53.63
2017-11-08T21:48:55.835Z,51.60
2017-11-08T21:51:24.863Z,49.35
2017-11-08T21:53:54.754Z,48.75
2017-11-08T21:56:24.208Z,47.95
2017-11-08T21:58:53.170Z,52.75
2017-11-08T22:01:22.224Z,45.75
2017-11-08T22:03:52.265Z,51.55
2017-11-08T22:06:22.372Z,52.03
2017-11-08T22:08:51.189Z,45.42
2017-11-08T22:11:20.682Z,46.70
2017-11-08T22:13:49.695Z,47.30
2017-11-08T22:16:18.503Z,42.83
2017-11-08T22:18:47.205Z,41.40
2017-11-08T22:21:16.764Z,44.42
2017-11-08T22:23:45.370Z,57.38
2017-11-08T22:26:15.247Z,46.53
2017-11-08T22:28:44.027Z,49.78
2017-11-08T22:31:12.924Z,48.75
2017-11-08T22:33:41.627Z,42.60
2017-11-08T22:36:10.648Z,58.87
2017-11-08T22:38:39.709Z,47.00
2017-11-08T22:41:08.547Z,51.30
2017-11-08T22:43:35.882Z,51.35
2017-11-08T22:46:02.363Z,51.88
2017-11-08T22:48:28.653Z,54.22
2017-11-08T22:50:55.776Z,43.80
2017-11-08T22:53:22.073Z,50.72
2017-11-08T22:55:48.391Z,47.62
2017-11-08T22:58:15.455Z,48.13
2017-11-08T23:00:41.728Z,52.72
2017-11-08T23:03:09.839Z,41.03
2017-11-08T23:05:36.140Z,47.85
2017-11-08T23:08:03.172Z,46.00
2017-11-08T23:10:29.448Z,47.08
2017-11-08T23:12:56.451Z,46.00
2017-11-08T23:15:22.734Z,45.75
2017-11-08T23:17:49.775Z,38.08
2017-11-08T23:20:16.071Z,44.10
2017-11-08T23:22:42.347Z,42.65
2017-11-08T23:25:08.657Z,42.85
2017-11-08T23:27:34.973Z,45.33
2017-11-08T23:30:01.267Z,52.47
2017-11-08T23:32:27.567Z,47.17
2017-11-08T23:34:54.760Z,47.47
2017-11-08T23:37:21.052Z,49.67
2017-11-08T23:39:48.083Z,48.65
2017-11-08T23:42:14.353Z,44.33
2017-11-08T23:44:41.407Z,37.08
2017-11-08T23:47:07.719Z,36.05
2017-11-08T23:49:34.003Z,42.55
2017-11-08T23:52:00.336Z,44.72
2017-11-08T23:54:26.623Z,52.65
2017-11-08T23:56:52.892Z,50.35
2017-11-08T23:59:26.144Z,57.08
